Time;durP1;ratioP1;P1;durP2;ratioP2;P2;SDS_P1;SDS_P2;PMS_P1;PMS_P2;Temp;Humidity;BMP_temperature;BMP_pressure;BME280_temperature;BME280_humidity;BME280_pressure;Samples;Min_cycle;Max_cycle;Signal;HPM_P1;HPM_P2
2023/11/18 00:01:08;;;;;;;16.52;7.05;;;;;;;;;;2107761;28;20024;-67
2023/11/18 00:02:28;;;;;;;12.45;7.32;;;;;;;;;;2102735;28;20032;-66
2023/11/18 00:03:47;;;;;;;13.32;7.13;;;;;;;;;;2105181;28;20024;-66
2023/11/18 00:05:07;;;;;;;8.20;6.70;;;;;;;;;;2107217;28;20635;-66
2023/11/18 00:06:26;;;;;;;15.15;7.50;;;;;;;;;;2107302;28;20052;-66
2023/11/18 00:07:45;;;;;;;8.98;6.65;;;;;;;;;;2108943;28;20028;-66
2023/11/18 00:09:06;;;;;;;11.48;6.70;;;;;;;;;;2102563;28;20028;-66
2023/11/18 00:10:25;;;;;;;10.20;6.57;;;;;;;;;;2106974;28;20028;-66
2023/11/18 00:11:44;;;;;;;11.45;7.10;;;;;;;;;;2106955;28;20442;-66
2023/11/18 00:13:03;;;;;;;12.00;7.35;;;;;;;;;;2106798;28;20032;-66
2023/11/18 00:14:22;;;;;;;11.13;6.82;;;;;;;;;;2105739;28;20028;-66
2023/11/18 00:15:42;;;;;;;15.13;7.25;;;;;;;;;;2107515;28;20374;-65
2023/11/18 00:17:02;;;;;;;8.77;7.13;;;;;;;;;;2104759;28;20044;-64
2023/11/18 00:18:21;;;;;;;17.02;7.10;;;;;;;;;;2109003;28;20031;-65
2023/11/18 00:19:41;;;;;;;10.10;6.60;;;;;;;;;;2107345;28;20480;-66
2023/11/18 00:21:00;;;;;;;14.55;7.60;;;;;;;;;;2109371;28;20028;-67
2023/11/18 00:22:19;;;;;;;19.10;7.43;;;;;;;;;;2108859;28;20486;-68
2023/11/18 00:23:39;;;;;;;14.25;7.13;;;;;;;;;;2107520;28;20020;-66
2023/11/18 00:24:58;;;;;;;14.48;7.55;;;;;;;;;;2108249;28;20024;-65
2023/11/18 00:26:17;;;;;;;16.50;7.15;;;;;;;;;;2108676;28;20445;-65
2023/11/18 00:27:36;;;;;;;14.30;6.88;;;;;;;;;;2107542;28;20063;-65
2023/11/18 00:28:55;;;;;;;11.85;6.63;;;;;;;;;;2105901;28;20368;-64
2023/11/18 00:30:14;;;;;;;13.68;6.80;;;;;;;;;;2104569;28;20028;-65
2023/11/18 00:31:33;;;;;;;12.90;6.65;;;;;;;;;;2107860;28;20075;-64
2023/11/18 00:32:52;;;;;;;10.70;6.68;;;;;;;;;;2105571;28;20461;-64
2023/11/18 00:34:11;;;;;;;11.18;7.13;;;;;;;;;;2104209;28;20028;-65
2023/11/18 00:35:33;;;;;;;13.40;7.70;;;;;;;;;;2103869;28;20024;-65
2023/11/18 00:36:52;;;;;;;12.13;6.97;;;;;;;;;;2110356;28;20036;-65
2023/11/18 00:38:11;;;;;;;14.55;6.75;;;;;;;;;;2104351;28;20028;-65
2023/11/18 00:39:31;;;;;;;19.08;7.70;;;;;;;;;;2102179;28;20124;-65
2023/11/18 00:40:49;;;;;;;14.90;7.55;;;;;;;;;;2105603;28;20063;-65
2023/11/18 00:42:09;;;;;;;13.25;6.90;;;;;;;;;;2106252;28;20036;-64
2023/11/18 00:43:28;;;;;;;12.55;7.65;;;;;;;;;;2105416;28;20040;-65
2023/11/18 00:44:47;;;;;;;12.95;7.72;;;;;;;;;;2104026;28;20031;-64
2023/11/18 00:46:06;;;;;;;13.45;7.35;;;;;;;;;;2108238;28;20026;-64
2023/11/18 00:47:25;;;;;;;10.75;7.68;;;;;;;;;;2106170;28;20043;-65
2023/11/18 00:48:44;;;;;;;13.13;6.63;;;;;;;;;;2104764;28;20088;-65
2023/11/18 00:50:03;;;;;;;12.23;7.57;;;;;;;;;;2108457;28;20024;-65
2023/11/18 00:51:22;;;;;;;11.55;7.20;;;;;;;;;;2105200;28;20027;-65
2023/11/18 00:52:41;;;;;;;16.23;7.47;;;;;;;;;;2103690;28;20032;-66
2023/11/18 00:54:01;;;;;;;12.60;7.78;;;;;;;;;;2108803;28;20392;-65
2023/11/18 00:55:20;;;;;;;12.38;7.15;;;;;;;;;;2106012;28;20108;-66
2023/11/18 00:56:39;;;;;;;9.05;6.95;;;;;;;;;;2106630;28;20028;-65
2023/11/18 00:57:59;;;;;;;18.08;7.65;;;;;;;;;;2106898;28;20028;-65
2023/11/18 00:59:17;;;;;;;9.50;6.47;;;;;;;;;;2108175;28;20051;-65
2023/11/18 01:00:36;;;;;;;11.10;7.80;;;;;;;;;;2105975;28;20032;-65
2023/11/18 01:01:55;;;;;;;13.75;7.53;;;;;;;;;;2104839;28;20506;-65
2023/11/18 01:03:14;;;;;;;11.88;7.43;;;;;;;;;;2105058;28;20071;-65
2023/11/18 01:04:34;;;;;;;9.68;6.93;;;;;;;;;;2108188;28;20020;-65
2023/11/18 01:05:53;;;;;;;9.63;6.45;;;;;;;;;;2106019;28;20468;-65
2023/11/18 01:07:12;;;;;;;15.05;7.00;;;;;;;;;;2104952;28;20036;-64
2023/11/18 01:08:31;;;;;;;10.95;6.93;;;;;;;;;;2106121;28;20024;-64
2023/11/18 01:09:50;;;;;;;11.10;7.00;;;;;;;;;;2107881;28;20024;-65
2023/11/18 01:11:09;;;;;;;14.73;7.32;;;;;;;;;;2106999;28;20395;-64
2023/11/18 01:12:27;;;;;;;9.38;6.70;;;;;;;;;;2106937;28;20031;-65
2023/11/18 01:13:47;;;;;;;13.20;7.55;;;;;;;;;;2107472;28;20099;-65
2023/11/18 01:15:06;;;;;;;11.57;6.30;;;;;;;;;;2109869;28;20027;-64
2023/11/18 01:16:25;;;;;;;11.05;6.53;;;;;;;;;;2107317;28;20020;-64
2023/11/18 01:17:44;;;;;;;7.20;6.07;;;;;;;;;;2106578;28;20391;-64
2023/11/18 01:19:03;;;;;;;8.23;6.60;;;;;;;;;;2105759;28;20036;-64
2023/11/18 01:20:22;;;;;;;10.18;6.60;;;;;;;;;;2105606;28;21894;-64
2023/11/18 01:21:41;;;;;;;9.13;6.55;;;;;;;;;;2105370;28;20477;-64
2023/11/18 01:23:01;;;;;;;12.85;7.25;;;;;;;;;;2106455;28;20059;-67
2023/11/18 01:24:20;;;;;;;9.90;6.65;;;;;;;;;;2105058;28;20496;-64
2023/11/18 01:25:40;;;;;;;13.35;6.90;;;;;;;;;;2103656;28;20040;-65
2023/11/18 01:27:01;;;;;;;14.60;6.95;;;;;;;;;;2106801;28;20063;-65
2023/11/18 01:28:20;;;;;;;9.73;6.57;;;;;;;;;;2108355;28;20032;-65
2023/11/18 01:29:39;;;;;;;9.27;6.50;;;;;;;;;;2103572;28;20032;-65
2023/11/18 01:30:59;;;;;;;8.52;5.97;;;;;;;;;;2105169;28;20035;-65
2023/11/18 01:32:18;;;;;;;9.55;6.70;;;;;;;;;;2104864;28;20020;-65
2023/11/18 01:33:40;;;;;;;8.98;6.72;;;;;;;;;;2105252;28;20036;-65
2023/11/18 01:34:59;;;;;;;12.90;7.00;;;;;;;;;;2106799;28;20012;-65
2023/11/18 01:36:18;;;;;;;12.27;6.63;;;;;;;;;;2102996;28;20012;-65
2023/11/18 01:37:37;;;;;;;9.60;6.95;;;;;;;;;;2106331;28;20024;-65
2023/11/18 01:38:57;;;;;;;11.13;6.95;;;;;;;;;;2105723;28;20089;-65
2023/11/18 01:40:16;;;;;;;12.85;6.82;;;;;;;;;;2104236;28;20059;-65
2023/11/18 01:41:35;;;;;;;11.23;7.38;;;;;;;;;;2104379;28;20056;-65
2023/11/18 01:42:54;;;;;;;9.10;7.22;;;;;;;;;;2108495;28;20024;-64
2023/11/18 01:44:14;;;;;;;8.93;7.15;;;;;;;;;;2107303;28;20043;-64
2023/11/18 01:45:34;;;;;;;11.38;6.88;;;;;;;;;;2104970;28;20148;-65
2023/11/18 01:46:54;;;;;;;8.38;6.50;;;;;;;;;;2105801;28;20020;-65
2023/11/18 01:48:13;;;;;;;11.18;7.65;;;;;;;;;;2106051;28;20059;-65
2023/11/18 01:49:36;;;;;;;10.00;6.90;;;;;;;;;;2105132;28;20036;-65
2023/11/18 01:50:59;;;;;;;8.60;6.55;;;;;;;;;;2104173;28;20028;-65
2023/11/18 01:52:18;;;;;;;12.20;7.15;;;;;;;;;;2106140;28;20024;-65
2023/11/18 01:53:39;;;;;;;12.15;7.18;;;;;;;;;;2107617;28;20178;-65
2023/11/18 01:54:59;;;;;;;12.30;7.40;;;;;;;;;;2106796;28;20046;-65
2023/11/18 01:56:20;;;;;;;10.27;7.00;;;;;;;;;;2107096;28;20104;-68
2023/11/18 01:57:43;;;;;;;13.63;7.20;;;;;;;;;;2103046;28;20028;-65
2023/11/18 01:59:04;;;;;;;11.68;6.90;;;;;;;;;;2107414;28;20028;-65
2023/11/18 02:00:24;;;;;;;9.85;7.30;;;;;;;;;;2107261;28;20032;-65
2023/11/18 02:01:46;;;;;;;11.85;6.85;;;;;;;;;;2107870;28;20024;-64
2023/11/18 02:03:05;;;;;;;11.50;6.03;;;;;;;;;;2106657;28;20481;-65
2023/11/18 02:04:24;;;;;;;10.30;6.05;;;;;;;;;;2107347;28;20032;-66
2023/11/18 02:05:44;;;;;;;10.60;7.15;;;;;;;;;;2106185;28;20462;-65
2023/11/18 02:07:08;;;;;;;12.35;6.63;;;;;;;;;;2107547;28;20024;-65
2023/11/18 02:08:28;;;;;;;8.60;6.68;;;;;;;;;;2106309;28;20028;-65
2023/11/18 02:09:47;;;;;;;11.57;6.88;;;;;;;;;;2107006;28;20066;-65
2023/11/18 02:11:20;;;;;;;11.25;6.78;;;;;;;;;;2104324;28;20032;-65
2023/11/18 02:12:40;;;;;;;10.65;6.40;;;;;;;;;;2107314;28;20426;-65
2023/11/18 02:14:04;;;;;;;9.23;6.93;;;;;;;;;;2105482;28;20032;-65
2023/11/18 02:15:25;;;;;;;11.13;7.22;;;;;;;;;;2105236;28;20464;-65
2023/11/18 02:16:45;;;;;;;8.13;6.55;;;;;;;;;;2107808;28;20107;-65
2023/11/18 02:18:05;;;;;;;10.73;7.07;;;;;;;;;;2103780;28;20032;-65
2023/11/18 02:19:24;;;;;;;11.88;6.85;;;;;;;;;;2106988;28;20024;-65
2023/11/18 02:20:47;;;;;;;9.27;7.10;;;;;;;;;;2105610;28;20384;-65
2023/11/18 02:22:07;;;;;;;8.48;6.53;;;;;;;;;;2105871;28;20158;-65
2023/11/18 02:23:27;;;;;;;9.45;6.68;;;;;;;;;;2104870;28;20027;-65
2023/11/18 02:24:46;;;;;;;10.40;7.05;;;;;;;;;;2104029;28;20032;-65
2023/11/18 02:26:05;;;;;;;9.85;6.32;;;;;;;;;;2109078;28;20483;-65
2023/11/18 02:27:26;;;;;;;8.55;6.43;;;;;;;;;;2107657;28;20544;-65
2023/11/18 02:28:45;;;;;;;10.32;6.75;;;;;;;;;;2106044;28;20032;-65
2023/11/18 02:30:06;;;;;;;10.10;7.55;;;;;;;;;;2107291;28;20024;-65
2023/11/18 02:31:31;;;;;;;7.93;6.70;;;;;;;;;;2108926;28;20028;-65
2023/11/18 02:33:05;;;;;;;12.40;7.30;;;;;;;;;;2106608;28;20028;-65
2023/11/18 02:34:28;;;;;;;12.77;7.03;;;;;;;;;;2111757;28;20643;-65
2023/11/18 02:35:48;;;;;;;;;;;;;;;;;;2107089;28;20025;-65
2023/11/18 02:37:07;;;;;;;13.10;7.07;;;;;;;;;;2109140;28;19907;-65
2023/11/18 02:38:31;;;;;;;11.75;7.65;;;;;;;;;;2110397;28;20032;-65
2023/11/18 02:39:53;;;;;;;10.23;7.05;;;;;;;;;;2107607;28;20487;-65
2023/11/18 02:41:14;;;;;;;9.25;6.68;;;;;;;;;;2108573;28;20496;-65
2023/11/18 02:42:37;;;;;;;11.70;7.45;;;;;;;;;;2110469;28;20064;-65
2023/11/18 02:43:58;;;;;;;11.90;8.00;;;;;;;;;;2107810;28;20519;-65
2023/11/18 02:45:17;;;;;;;10.18;6.68;;;;;;;;;;2107702;28;20400;-65
2023/11/18 02:46:37;;;;;;;11.55;6.50;;;;;;;;;;2108510;28;20052;-64
2023/11/18 02:47:57;;;;;;;10.75;7.38;;;;;;;;;;2108011;28;20467;-65
2023/11/18 02:49:16;;;;;;;12.73;7.40;;;;;;;;;;2106986;28;20589;-65
2023/11/18 02:50:38;;;;;;;13.10;7.07;;;;;;;;;;2106916;28;20024;-65
2023/11/18 02:51:57;;;;;;;9.70;6.43;;;;;;;;;;2107622;28;20480;-65
2023/11/18 02:53:16;;;;;;;8.48;6.45;;;;;;;;;;2106849;28;20406;-65
2023/11/18 02:54:35;;;;;;;8.18;7.20;;;;;;;;;;2104802;28;20111;-65
2023/11/18 02:55:54;;;;;;;10.95;7.07;;;;;;;;;;2107099;28;20106;-65
2023/11/18 02:57:13;;;;;;;9.50;6.78;;;;;;;;;;2109331;28;20032;-65
2023/11/18 02:58:33;;;;;;;8.45;5.72;;;;;;;;;;2104011;28;20504;-65
2023/11/18 02:59:52;;;;;;;7.13;5.90;;;;;;;;;;2106579;28;20036;-65
2023/11/18 03:01:11;;;;;;;8.40;5.93;;;;;;;;;;2106844;28;20032;-65
2023/11/18 03:02:30;;;;;;;7.50;6.10;;;;;;;;;;2108530;28;20028;-65
2023/11/18 03:03:49;;;;;;;7.60;6.28;;;;;;;;;;2107255;28;20024;-65
2023/11/18 03:05:11;;;;;;;8.93;6.30;;;;;;;;;;2108080;28;20414;-64
2023/11/18 03:06:32;;;;;;;9.73;5.72;;;;;;;;;;2107675;28;20908;-65
2023/11/18 03:07:53;;;;;;;7.72;6.00;;;;;;;;;;2106830;28;20114;-65
2023/11/18 03:09:13;;;;;;;8.25;6.25;;;;;;;;;;2106266;28;20028;-65
2023/11/18 03:10:35;;;;;;;6.95;5.35;;;;;;;;;;2104489;28;20024;-66
2023/11/18 03:11:54;;;;;;;8.55;5.22;;;;;;;;;;2105734;28;20019;-65
2023/11/18 03:13:13;;;;;;;9.38;6.03;;;;;;;;;;2102346;28;20067;-65
2023/11/18 03:14:33;;;;;;;6.57;5.32;;;;;;;;;;2105340;28;20027;-65
2023/11/18 03:15:52;;;;;;;6.40;4.88;;;;;;;;;;2103545;28;20396;-65
2023/11/18 03:17:11;;;;;;;7.63;5.18;;;;;;;;;;2100975;28;20408;-65
2023/11/18 03:18:31;;;;;;;6.38;5.75;;;;;;;;;;2101023;28;20036;-65
2023/11/18 03:19:50;;;;;;;6.85;5.95;;;;;;;;;;2106676;28;20107;-65
2023/11/18 03:21:13;;;;;;;5.50;4.82;;;;;;;;;;2108491;28;20028;-65
2023/11/18 03:22:31;;;;;;;8.75;5.32;;;;;;;;;;2108504;28;20036;-65
2023/11/18 03:23:51;;;;;;;5.93;4.82;;;;;;;;;;2107350;28;20059;-65
2023/11/18 03:25:10;;;;;;;8.82;4.85;;;;;;;;;;2106701;28;20497;-65
2023/11/18 03:26:29;;;;;;;6.68;5.38;;;;;;;;;;2105895;28;20035;-65
2023/11/18 03:27:48;;;;;;;6.25;5.63;;;;;;;;;;2109836;28;20400;-65
2023/11/18 03:29:07;;;;;;;7.07;4.35;;;;;;;;;;2106719;28;20024;-65
2023/11/18 03:30:26;;;;;;;8.02;5.03;;;;;;;;;;2105548;28;20032;-65
2023/11/18 03:31:48;;;;;;;5.15;4.65;;;;;;;;;;2105997;28;20032;-65
2023/11/18 03:33:10;;;;;;;8.15;5.55;;;;;;;;;;2106750;28;20023;-65
2023/11/18 03:34:29;;;;;;;6.45;4.55;;;;;;;;;;2105521;28;20129;-65
2023/11/18 03:35:48;;;;;;;8.25;4.28;;;;;;;;;;2105161;28;20460;-65
2023/11/18 03:37:08;;;;;;;4.38;4.05;;;;;;;;;;2106463;28;20114;-65
2023/11/18 03:38:30;;;;;;;4.57;4.18;;;;;;;;;;2104224;28;20438;-65
2023/11/18 03:39:49;;;;;;;5.38;4.20;;;;;;;;;;2102036;28;20056;-65
2023/11/18 03:41:08;;;;;;;4.57;4.15;;;;;;;;;;2105811;28;20028;-65
2023/11/18 03:42:28;;;;;;;6.55;4.30;;;;;;;;;;2106373;28;20101;-65
2023/11/18 03:43:48;;;;;;;5.10;4.43;;;;;;;;;;2103978;28;20047;-66
2023/11/18 03:45:07;;;;;;;6.80;4.13;;;;;;;;;;2109586;28;20040;-64
2023/11/18 03:46:30;;;;;;;4.40;3.95;;;;;;;;;;2108772;28;20084;-64
2023/11/18 03:47:50;;;;;;;4.50;4.10;;;;;;;;;;2106753;28;20416;-64
2023/11/18 03:49:09;;;;;;;4.47;3.88;;;;;;;;;;2106469;28;20445;-64
2023/11/18 03:50:28;;;;;;;5.95;3.95;;;;;;;;;;2107412;28;20023;-65
2023/11/18 03:51:47;;;;;;;4.15;3.75;;;;;;;;;;2104316;28;20067;-64
2023/11/18 03:53:06;;;;;;;4.72;4.32;;;;;;;;;;2104516;28;20036;-63
2023/11/18 03:54:25;;;;;;;4.55;4.15;;;;;;;;;;2108567;28;20036;-63
2023/11/18 03:55:44;;;;;;;4.40;3.70;;;;;;;;;;2106802;28;20020;-64
2023/11/18 03:57:05;;;;;;;7.50;4.40;;;;;;;;;;2121207;27;20058;-64
2023/11/18 03:58:24;;;;;;;3.83;3.53;;;;;;;;;;2113046;27;20032;-64
2023/11/18 03:59:43;;;;;;;4.82;3.45;;;;;;;;;;2105092;28;20032;-64
2023/11/18 04:01:02;;;;;;;9.55;5.03;;;;;;;;;;2107045;28;20030;-64
2023/11/18 04:02:21;;;;;;;6.65;4.50;;;;;;;;;;2109130;28;20028;-64
2023/11/18 04:03:41;;;;;;;4.50;4.05;;;;;;;;;;2108277;28;20060;-65
2023/11/18 04:05:00;;;;;;;6.20;4.15;;;;;;;;;;2105061;28;20028;-65
2023/11/18 04:06:21;;;;;;;6.05;3.95;;;;;;;;;;2104728;28;20036;-64
2023/11/18 04:07:41;;;;;;;4.70;3.78;;;;;;;;;;2107556;28;20115;-64
2023/11/18 04:09:00;;;;;;;4.63;3.95;;;;;;;;;;2107831;28;20020;-64
2023/11/18 04:10:20;;;;;;;3.53;3.22;;;;;;;;;;2106446;28;20023;-64
2023/11/18 04:11:39;;;;;;;5.25;3.88;;;;;;;;;;2105977;28;20024;-64
2023/11/18 04:12:58;;;;;;;4.85;3.85;;;;;;;;;;2106414;28;20028;-64
2023/11/18 04:14:17;;;;;;;3.97;3.58;;;;;;;;;;2103501;28;20396;-66
2023/11/18 04:15:36;;;;;;;3.70;3.40;;;;;;;;;;2106024;28;20020;-65
2023/11/18 04:16:55;;;;;;;3.90;3.55;;;;;;;;;;2107433;28;20492;-64
2023/11/18 04:18:14;;;;;;;5.78;3.75;;;;;;;;;;2105586;28;20031;-64
2023/11/18 04:19:34;;;;;;;5.15;3.38;;;;;;;;;;2108654;28;20031;-64
2023/11/18 04:20:53;;;;;;;4.00;3.40;;;;;;;;;;2104712;28;20036;-64
2023/11/18 04:22:12;;;;;;;3.50;3.22;;;;;;;;;;2103676;28;20028;-66
2023/11/18 04:23:32;;;;;;;3.70;3.30;;;;;;;;;;2105905;28;20493;-67
2023/11/18 04:24:51;;;;;;;4.65;4.25;;;;;;;;;;2109220;28;20468;-64
2023/11/18 04:26:10;;;;;;;5.18;3.22;;;;;;;;;;2107028;28;20527;-64
2023/11/18 04:27:29;;;;;;;3.42;3.13;;;;;;;;;;2106332;28;20023;-66
2023/11/18 04:28:49;;;;;;;3.92;3.58;;;;;;;;;;2104338;28;20533;-65
2023/11/18 04:30:08;;;;;;;4.15;3.33;;;;;;;;;;2108769;28;20031;-65
2023/11/18 04:31:28;;;;;;;3.97;3.58;;;;;;;;;;2106096;28;20142;-65
2023/11/18 04:32:47;;;;;;;3.97;3.65;;;;;;;;;;2108418;28;20035;-65
2023/11/18 04:34:06;;;;;;;4.78;3.63;;;;;;;;;;2103910;28;20032;-65
2023/11/18 04:35:25;;;;;;;3.90;3.50;;;;;;;;;;2106218;28;20020;-65
2023/11/18 04:36:44;;;;;;;3.65;3.35;;;;;;;;;;2106737;28;20487;-65
2023/11/18 04:38:03;;;;;;;4.55;3.60;;;;;;;;;;2105751;28;20028;-65
2023/11/18 04:39:22;;;;;;;5.80;3.53;;;;;;;;;;2101464;28;20028;-65
2023/11/18 04:40:44;;;;;;;3.47;3.17;;;;;;;;;;2108062;28;20024;-65
2023/11/18 04:42:03;;;;;;;3.95;3.65;;;;;;;;;;2106500;28;20032;-65
2023/11/18 04:43:23;;;;;;;4.57;3.38;;;;;;;;;;2107264;28;20048;-65
2023/11/18 04:44:42;;;;;;;3.20;2.90;;;;;;;;;;2106599;28;20055;-65
2023/11/18 04:46:01;;;;;;;4.78;4.35;;;;;;;;;;2104942;28;20400;-65
2023/11/18 04:47:20;;;;;;;4.18;3.35;;;;;;;;;;2106032;28;20118;-65
2023/11/18 04:48:39;;;;;;;4.80;3.92;;;;;;;;;;2106448;28;20516;-65
2023/11/18 04:49:59;;;;;;;4.22;3.83;;;;;;;;;;2108774;28;20032;-65
2023/11/18 04:51:17;;;;;;;4.05;3.65;;;;;;;;;;2106187;28;20028;-65
2023/11/18 04:52:36;;;;;;;4.18;3.83;;;;;;;;;;2106918;28;20032;-65
2023/11/18 04:53:55;;;;;;;4.45;3.88;;;;;;;;;;2106202;28;20032;-65
2023/11/18 04:55:14;;;;;;;7.68;3.72;;;;;;;;;;2107164;28;20032;-65
2023/11/18 04:56:37;;;;;;;5.07;3.92;;;;;;;;;;2103086;28;20032;-65
2023/11/18 04:57:56;;;;;;;3.88;3.58;;;;;;;;;;2106971;28;21462;-65
2023/11/18 04:59:15;;;;;;;4.38;3.53;;;;;;;;;;2105270;28;20494;-65
2023/11/18 05:00:35;;;;;;;6.22;3.47;;;;;;;;;;2105303;28;20477;-67
2023/11/18 05:01:54;;;;;;;4.88;3.50;;;;;;;;;;2107924;28;20024;-65
2023/11/18 05:03:13;;;;;;;3.53;3.22;;;;;;;;;;2105392;28;20020;-65
2023/11/18 05:04:32;;;;;;;4.20;3.78;;;;;;;;;;2104171;28;20033;-65
2023/11/18 05:05:51;;;;;;;4.10;3.70;;;;;;;;;;2106569;28;20036;-65
2023/11/18 05:07:10;;;;;;;3.60;3.30;;;;;;;;;;2106561;28;20024;-65
2023/11/18 05:08:29;;;;;;;5.15;3.63;;;;;;;;;;2106029;28;20488;-65
2023/11/18 05:09:48;;;;;;;4.40;4.00;;;;;;;;;;2105477;28;20024;-65
2023/11/18 05:11:07;;;;;;;3.90;3.45;;;;;;;;;;2108272;28;20114;-65
2023/11/18 05:12:29;;;;;;;5.22;4.13;;;;;;;;;;2107560;28;20121;-66
2023/11/18 05:13:49;;;;;;;3.80;3.47;;;;;;;;;;2104647;28;20024;-66
2023/11/18 05:15:08;;;;;;;3.92;3.58;;;;;;;;;;2106014;28;20369;-65
2023/11/18 05:16:27;;;;;;;6.05;4.10;;;;;;;;;;2105470;28;20040;-65
2023/11/18 05:17:46;;;;;;;4.93;3.83;;;;;;;;;;2108602;28;20031;-65
2023/11/18 05:19:05;;;;;;;4.00;3.70;;;;;;;;;;2105297;28;20479;-65
2023/11/18 05:20:24;;;;;;;4.63;3.70;;;;;;;;;;2104997;28;20040;-65
2023/11/18 05:21:44;;;;;;;5.72;4.20;;;;;;;;;;2105970;28;20040;-65
2023/11/18 05:23:03;;;;;;;4.93;4.13;;;;;;;;;;2107475;28;20027;-65
2023/11/18 05:24:22;;;;;;;5.40;4.30;;;;;;;;;;2107358;28;20039;-65
2023/11/18 05:25:43;;;;;;;5.28;4.60;;;;;;;;;;2106514;28;20020;-65
2023/11/18 05:27:02;;;;;;;7.50;4.40;;;;;;;;;;2106037;28;20023;-65
2023/11/18 05:28:21;;;;;;;8.27;5.03;;;;;;;;;;2106042;28;20024;-65
2023/11/18 05:29:41;;;;;;;5.00;4.10;;;;;;;;;;2107975;28;20024;-65
2023/11/18 05:31:04;;;;;;;4.47;4.15;;;;;;;;;;2105898;28;20024;-65
2023/11/18 05:32:25;;;;;;;4.53;3.88;;;;;;;;;;2106051;28;20015;-65
2023/11/18 05:33:45;;;;;;;4.30;3.90;;;;;;;;;;2105828;28;20476;-65
2023/11/18 05:35:04;;;;;;;5.15;4.65;;;;;;;;;;2106052;28;20118;-65
2023/11/18 05:36:27;;;;;;;5.13;4.70;;;;;;;;;;2108099;28;20024;-68
2023/11/18 05:37:47;;;;;;;5.45;4.30;;;;;;;;;;2105778;28;20602;-65
2023/11/18 05:39:09;;;;;;;7.22;4.97;;;;;;;;;;2103705;28;20508;-64
2023/11/18 05:40:29;;;;;;;5.05;4.40;;;;;;;;;;2105777;28;20036;-65
2023/11/18 05:41:50;;;;;;;5.15;4.63;;;;;;;;;;2104369;28;20024;-65
2023/11/18 05:43:15;;;;;;;6.03;4.15;;;;;;;;;;2105402;28;20019;-65
2023/11/18 05:44:37;;;;;;;4.30;3.90;;;;;;;;;;2105242;28;20420;-66
2023/11/18 05:47:35;;;;;;;4.15;3.85;;;;;;;;;;2105097;28;20051;-65
2023/11/18 05:48:54;;;;;;;4.75;4.25;;;;;;;;;;2104530;28;20119;-65
2023/11/18 05:50:14;;;;;;;4.28;3.75;;;;;;;;;;2104667;28;20016;-65
2023/11/18 05:51:34;;;;;;;4.78;4.38;;;;;;;;;;2102948;28;20477;-67
2023/11/18 05:52:53;;;;;;;3.75;3.53;;;;;;;;;;2104218;28;20036;-65
2023/11/18 05:54:12;;;;;;;6.30;4.32;;;;;;;;;;2107418;28;20032;-65
2023/11/18 05:55:31;;;;;;;4.93;4.00;;;;;;;;;;2106207;28;20024;-69
2023/11/18 05:56:51;;;;;;;3.72;3.42;;;;;;;;;;2102792;28;21246;-70
2023/11/18 05:58:09;;;;;;;4.07;3.67;;;;;;;;;;2104015;28;20035;-65
2023/11/18 05:59:29;;;;;;;4.97;3.65;;;;;;;;;;2105426;28;20025;-65
2023/11/18 06:00:47;;;;;;;3.60;3.28;;;;;;;;;;2108070;28;20023;-65
2023/11/18 06:02:07;;;;;;;4.30;4.00;;;;;;;;;;2106268;28;20024;-65
2023/11/18 06:03:26;;;;;;;3.42;3.17;;;;;;;;;;2104206;28;20304;-66
2023/11/18 06:04:45;;;;;;;5.80;3.35;;;;;;;;;;2102410;28;20069;-65
2023/11/18 06:06:09;;;;;;;4.72;2.97;;;;;;;;;;2106031;28;20031;-65
2023/11/18 06:07:28;;;;;;;3.65;3.33;;;;;;;;;;2108141;28;20392;-65
2023/11/18 06:08:47;;;;;;;3.90;3.60;;;;;;;;;;2105504;28;20121;-65
2023/11/18 06:10:07;;;;;;;3.80;3.50;;;;;;;;;;2105774;28;20043;-64
2023/11/18 06:11:27;;;;;;;3.40;3.10;;;;;;;;;;2105553;28;20024;-66
2023/11/18 06:12:46;;;;;;;3.53;3.10;;;;;;;;;;2108122;28;20473;-65
2023/11/18 06:14:08;;;;;;;3.30;3.10;;;;;;;;;;2106706;28;20477;-68
2023/11/18 06:15:27;;;;;;;4.50;2.92;;;;;;;;;;2102737;28;20064;-64
2023/11/18 06:16:50;;;;;;;3.70;3.42;;;;;;;;;;2100549;28;20020;-65
2023/11/18 06:18:09;;;;;;;3.45;3.22;;;;;;;;;;2106827;28;20028;-65
2023/11/18 06:19:28;;;;;;;4.68;3.30;;;;;;;;;;2105978;28;20035;-65
2023/11/18 06:20:46;;;;;;;3.10;2.90;;;;;;;;;;2102064;28;20020;-65
2023/11/18 06:22:05;;;;;;;3.03;2.83;;;;;;;;;;2104715;28;20032;-65
2023/11/18 06:23:25;;;;;;;3.92;3.53;;;;;;;;;;2107878;28;20115;-65
2023/11/18 06:24:45;;;;;;;3.22;2.83;;;;;;;;;;2107600;28;20016;-65
2023/11/18 06:26:04;;;;;;;3.60;3.30;;;;;;;;;;2108246;28;20031;-65
2023/11/18 06:27:24;;;;;;;3.35;3.05;;;;;;;;;;2105112;28;20107;-65
2023/11/18 06:28:44;;;;;;;3.10;2.90;;;;;;;;;;2101365;28;20399;-63
2023/11/18 06:30:03;;;;;;;3.30;3.10;;;;;;;;;;2106543;28;20025;-64
2023/11/18 06:31:23;;;;;;;3.25;2.92;;;;;;;;;;2108819;28;20036;-65
2023/11/18 06:32:42;;;;;;;4.03;3.40;;;;;;;;;;2105626;28;20484;-67
2023/11/18 06:34:03;;;;;;;2.92;2.67;;;;;;;;;;2104515;28;20032;-64
2023/11/18 06:35:22;;;;;;;3.63;3.33;;;;;;;;;;2107332;28;20032;-64
2023/11/18 06:36:40;;;;;;;2.92;2.70;;;;;;;;;;2104010;28;20028;-64
2023/11/18 06:37:59;;;;;;;3.13;2.92;;;;;;;;;;2104113;28;20028;-64
2023/11/18 06:39:19;;;;;;;2.78;2.58;;;;;;;;;;2103024;28;20056;-64
2023/11/18 06:40:38;;;;;;;2.88;2.67;;;;;;;;;;2104540;28;20495;-64
2023/11/18 06:41:58;;;;;;;5.65;3.22;;;;;;;;;;2106006;28;20863;-64
2023/11/18 06:43:18;;;;;;;3.03;2.83;;;;;;;;;;2107486;28;20028;-64
2023/11/18 06:44:38;;;;;;;3.13;2.92;;;;;;;;;;2104551;28;20027;-64
2023/11/18 06:45:57;;;;;;;3.50;3.15;;;;;;;;;;2105652;28;20028;-64
2023/11/18 06:47:19;;;;;;;4.20;3.17;;;;;;;;;;2106425;28;20032;-64
2023/11/18 06:48:38;;;;;;;3.08;2.85;;;;;;;;;;2103025;28;20087;-64
2023/11/18 06:49:56;;;;;;;3.30;3.00;;;;;;;;;;2104658;28;20063;-64
2023/11/18 06:51:15;;;;;;;3.33;3.13;;;;;;;;;;2103620;28;20024;-64
2023/11/18 06:52:38;;;;;;;3.30;3.00;;;;;;;;;;2104160;28;20041;-64
2023/11/18 06:53:58;;;;;;;3.22;2.92;;;;;;;;;;2108085;28;20116;-64
2023/11/18 06:55:17;;;;;;;3.10;2.90;;;;;;;;;;2107440;28;20036;-64
2023/11/18 06:56:37;;;;;;;2.88;2.55;;;;;;;;;;2104994;28;20036;-63
2023/11/18 06:57:56;;;;;;;3.00;2.72;;;;;;;;;;2103269;28;20020;-63
2023/11/18 06:59:15;;;;;;;3.20;3.00;;;;;;;;;;2105710;28;20106;-63
2023/11/18 07:00:34;;;;;;;3.70;3.28;;;;;;;;;;2106298;28;20044;-64
2023/11/18 07:01:53;;;;;;;5.30;3.00;;;;;;;;;;2107828;28;20497;-63
2023/11/18 07:03:12;;;;;;;3.47;3.17;;;;;;;;;;2105889;28;20031;-66
2023/11/18 07:04:31;;;;;;;2.80;2.60;;;;;;;;;;2105311;28;20465;-64
2023/11/18 07:05:50;;;;;;;10.38;3.35;;;;;;;;;;2109238;28;20032;-63
2023/11/18 07:07:09;;;;;;;3.15;2.95;;;;;;;;;;2105643;28;20066;-64
2023/11/18 07:08:28;;;;;;;3.13;2.92;;;;;;;;;;2104444;28;20032;-64
2023/11/18 07:09:47;;;;;;;3.13;2.90;;;;;;;;;;2104599;28;20024;-64
2023/11/18 07:11:06;;;;;;;3.50;3.20;;;;;;;;;;2106817;28;20024;-65
2023/11/18 07:12:25;;;;;;;2.97;2.78;;;;;;;;;;2108340;28;20016;-64
2023/11/18 07:13:44;;;;;;;3.30;3.10;;;;;;;;;;2107054;28;20073;-64
2023/11/18 07:15:04;;;;;;;3.72;3.50;;;;;;;;;;2099814;28;20028;-64
2023/11/18 07:16:24;;;;;;;3.40;3.10;;;;;;;;;;2101906;28;20599;-64
2023/11/18 07:17:43;;;;;;;3.90;3.60;;;;;;;;;;2109598;28;20032;-64
2023/11/18 07:19:03;;;;;;;4.05;3.75;;;;;;;;;;2108328;28;20627;-64
2023/11/18 07:20:22;;;;;;;4.47;4.07;;;;;;;;;;2107766;28;20131;-64
2023/11/18 07:21:41;;;;;;;4.47;4.07;;;;;;;;;;2107280;28;20036;-64
2023/11/18 07:23:00;;;;;;;4.28;3.85;;;;;;;;;;2109208;28;20028;-64
2023/11/18 07:24:19;;;;;;;3.95;3.65;;;;;;;;;;2108085;28;20040;-64
2023/11/18 07:25:39;;;;;;;6.45;3.45;;;;;;;;;;2105673;28;20027;-64
2023/11/18 07:26:59;;;;;;;4.43;4.03;;;;;;;;;;2102653;28;20067;-64
2023/11/18 07:28:18;;;;;;;4.07;3.78;;;;;;;;;;2104959;28;20028;-64
2023/11/18 07:29:37;;;;;;;5.75;3.90;;;;;;;;;;2106786;28;20020;-64
2023/11/18 07:30:57;;;;;;;4.28;3.97;;;;;;;;;;2106432;28;20480;-64
2023/11/18 07:32:19;;;;;;;3.92;3.63;;;;;;;;;;2107247;28;20028;-64
2023/11/18 07:33:38;;;;;;;4.22;3.78;;;;;;;;;;2106661;28;20020;-64
2023/11/18 07:34:57;;;;;;;5.10;4.05;;;;;;;;;;2106237;28;20028;-65
2023/11/18 07:36:16;;;;;;;3.63;3.33;;;;;;;;;;2103975;28;20927;-64
2023/11/18 07:37:36;;;;;;;3.47;3.13;;;;;;;;;;2106900;28;20084;-64
2023/11/18 07:38:55;;;;;;;4.47;4.18;;;;;;;;;;2105014;28;20028;-64
2023/11/18 07:40:21;;;;;;;3.95;3.55;;;;;;;;;;2104203;28;20028;-64
2023/11/18 07:41:44;;;;;;;5.50;4.28;;;;;;;;;;2104175;28;20024;-64
2023/11/18 07:43:03;;;;;;;4.88;4.07;;;;;;;;;;2103681;28;20118;-63
2023/11/18 07:44:23;;;;;;;3.83;3.53;;;;;;;;;;2105229;28;20047;-64
2023/11/18 07:45:43;;;;;;;4.57;4.10;;;;;;;;;;2105884;28;20035;-64
2023/11/18 07:47:02;;;;;;;3.60;3.35;;;;;;;;;;2108634;28;20504;-64
2023/11/18 07:48:21;;;;;;;5.22;3.63;;;;;;;;;;2108243;28;20040;-64
2023/11/18 07:49:40;;;;;;;4.20;3.90;;;;;;;;;;2106955;28;20024;-65
2023/11/18 07:51:00;;;;;;;5.97;3.33;;;;;;;;;;2102621;28;20388;-65
2023/11/18 07:52:19;;;;;;;3.90;3.60;;;;;;;;;;2107784;28;20028;-66
2023/11/18 07:53:38;;;;;;;6.28;3.80;;;;;;;;;;2105489;28;20110;-65
2023/11/18 07:54:57;;;;;;;3.30;3.05;;;;;;;;;;2106416;28;20032;-65
2023/11/18 07:56:16;;;;;;;4.32;3.92;;;;;;;;;;2105710;28;20054;-65
2023/11/18 07:57:36;;;;;;;4.55;3.50;;;;;;;;;;2106037;28;20020;-66
2023/11/18 07:58:56;;;;;;;3.35;3.05;;;;;;;;;;2104291;28;20443;-64